sensor_id;sensor_type;location;lat;lon;timestamp;temperature;humidity
6106;DHT22;3083;51.508;7.966;2023-07-13T00:01:30;17.10;99.90
6106;DHT22;3083;51.508;7.966;2023-07-13T00:03:57;17.10;99.90
6106;DHT22;3083;51.508;7.966;2023-07-13T00:06:26;17.20;99.90
6106;DHT22;3083;51.508;7.966;2023-07-13T00:08:58;17.20;99.90
6106;DHT22;3083;51.508;7.966;2023-07-13T00:11:25;17.20;99.90
6106;DHT22;3083;51.508;7.966;2023-07-13T00:13:52;17.10;99.90
6106;DHT22;3083;51.508;7.966;2023-07-13T00:16:19;17.20;99.90
6106;DHT22;3083;51.508;7.966;2023-07-13T00:18:47;17.10;99.90
6106;DHT22;3083;51.508;7.966;2023-07-13T00:21:14;17.10;99.90
6106;DHT22;3083;51.508;7.966;2023-07-13T00:23:42;17.10;99.90
6106;DHT22;3083;51.508;7.966;2023-07-13T00:26:10;17.10;99.90
6106;DHT22;3083;51.508;7.966;2023-07-13T00:28:38;17.00;99.90
6106;DHT22;3083;51.508;7.966;2023-07-13T00:31:07;17.00;99.90
6106;DHT22;3083;51.508;7.966;2023-07-13T00:33:34;16.90;99.90
6106;DHT22;3083;51.508;7.966;2023-07-13T00:36:01;16.90;99.90
6106;DHT22;3083;51.508;7.966;2023-07-13T00:38:28;16.80;99.90
6106;DHT22;3083;51.508;7.966;2023-07-13T00:40:56;16.80;99.90
6106;DHT22;3083;51.508;7.966;2023-07-13T00:43:26;16.80;99.90
6106;DHT22;3083;51.508;7.966;2023-07-13T00:46:14;16.70;99.90
6106;DHT22;3083;51.508;7.966;2023-07-13T00:48:44;16.70;99.90
6106;DHT22;3083;51.508;7.966;2023-07-13T00:51:13;16.70;99.90
6106;DHT22;3083;51.508;7.966;2023-07-13T00:53:40;16.60;99.90
6106;DHT22;3083;51.508;7.966;2023-07-13T00:56:09;16.60;99.90
6106;DHT22;3083;51.508;7.966;2023-07-13T00:58:36;16.50;99.90
6106;DHT22;3083;51.508;7.966;2023-07-13T01:01:03;16.50;99.90
6106;DHT22;3083;51.508;7.966;2023-07-13T01:03:29;16.50;99.90
6106;DHT22;3083;51.508;7.966;2023-07-13T01:05:56;16.50;99.90
6106;DHT22;3083;51.508;7.966;2023-07-13T01:08:23;16.50;99.90
6106;DHT22;3083;51.508;7.966;2023-07-13T01:10:52;16.40;99.90
6106;DHT22;3083;51.508;7.966;2023-07-13T01:13:20;16.40;99.90
6106;DHT22;3083;51.508;7.966;2023-07-13T01:15:49;16.30;99.90
6106;DHT22;3083;51.508;7.966;2023-07-13T01:18:18;16.30;99.90
6106;DHT22;3083;51.508;7.966;2023-07-13T01:20:51;16.30;99.90
6106;DHT22;3083;51.508;7.966;2023-07-13T01:23:18;16.30;99.90
6106;DHT22;3083;51.508;7.966;2023-07-13T01:25:46;16.30;99.90
6106;DHT22;3083;51.508;7.966;2023-07-13T01:28:13;16.30;99.90
6106;DHT22;3083;51.508;7.966;2023-07-13T01:30:43;16.20;99.90
6106;DHT22;3083;51.508;7.966;2023-07-13T01:33:12;16.20;99.90
6106;DHT22;3083;51.508;7.966;2023-07-13T01:35:39;16.10;99.90
6106;DHT22;3083;51.508;7.966;2023-07-13T01:38:09;16.10;99.90
6106;DHT22;3083;51.508;7.966;2023-07-13T01:40:37;16.00;99.90
6106;DHT22;3083;51.508;7.966;2023-07-13T01:43:04;16.00;99.90
6106;DHT22;3083;51.508;7.966;2023-07-13T01:45:32;16.00;99.90
6106;DHT22;3083;51.508;7.966;2023-07-13T01:47:58;15.90;99.90
6106;DHT22;3083;51.508;7.966;2023-07-13T01:50:25;15.90;99.90
6106;DHT22;3083;51.508;7.966;2023-07-13T01:52:52;15.80;99.90
6106;DHT22;3083;51.508;7.966;2023-07-13T01:55:21;15.70;99.90
6106;DHT22;3083;51.508;7.966;2023-07-13T01:57:48;15.70;99.90
6106;DHT22;3083;51.508;7.966;2023-07-13T02:00:16;15.60;99.90
6106;DHT22;3083;51.508;7.966;2023-07-13T02:02:43;15.50;99.90
6106;DHT22;3083;51.508;7.966;2023-07-13T02:05:10;15.40;99.90
6106;DHT22;3083;51.508;7.966;2023-07-13T02:07:38;15.30;99.90
6106;DHT22;3083;51.508;7.966;2023-07-13T02:10:05;15.20;99.90
6106;DHT22;3083;51.508;7.966;2023-07-13T02:12:34;15.20;99.90
6106;DHT22;3083;51.508;7.966;2023-07-13T02:15:00;15.10;99.90
6106;DHT22;3083;51.508;7.966;2023-07-13T02:17:27;15.10;99.90
6106;DHT22;3083;51.508;7.966;2023-07-13T02:19:54;15.10;99.90
6106;DHT22;3083;51.508;7.966;2023-07-13T02:22:21;15.20;99.90
6106;DHT22;3083;51.508;7.966;2023-07-13T02:24:48;15.20;99.90
6106;DHT22;3083;51.508;7.966;2023-07-13T02:27:15;15.20;99.90
6106;DHT22;3083;51.508;7.966;2023-07-13T02:29:44;15.10;99.90
6106;DHT22;3083;51.508;7.966;2023-07-13T02:32:10;15.10;99.90
6106;DHT22;3083;51.508;7.966;2023-07-13T02:34:37;15.00;99.90
6106;DHT22;3083;51.508;7.966;2023-07-13T02:37:04;15.00;99.90
6106;DHT22;3083;51.508;7.966;2023-07-13T02:39:31;15.00;99.90
6106;DHT22;3083;51.508;7.966;2023-07-13T02:41:59;14.90;99.90
6106;DHT22;3083;51.508;7.966;2023-07-13T02:44:26;14.90;99.90
6106;DHT22;3083;51.508;7.966;2023-07-13T02:46:55;14.90;99.90
6106;DHT22;3083;51.508;7.966;2023-07-13T02:49:22;14.80;99.90
6106;DHT22;3083;51.508;7.966;2023-07-13T02:51:49;14.80;99.90
6106;DHT22;3083;51.508;7.966;2023-07-13T02:54:15;14.90;99.90
6106;DHT22;3083;51.508;7.966;2023-07-13T02:56:43;14.90;99.90
6106;DHT22;3083;51.508;7.966;2023-07-13T02:59:10;15.00;99.90
6106;DHT22;3083;51.508;7.966;2023-07-13T03:01:37;15.00;99.90
6106;DHT22;3083;51.508;7.966;2023-07-13T03:04:06;15.00;99.90
6106;DHT22;3083;51.508;7.966;2023-07-13T03:06:33;15.00;99.90
6106;DHT22;3083;51.508;7.966;2023-07-13T03:09:00;15.00;99.90
6106;DHT22;3083;51.508;7.966;2023-07-13T03:11:27;15.00;99.90
6106;DHT22;3083;51.508;7.966;2023-07-13T03:13:55;15.00;99.90
6106;DHT22;3083;51.508;7.966;2023-07-13T03:16:22;15.00;99.90
6106;DHT22;3083;51.508;7.966;2023-07-13T03:18:49;15.00;99.90
6106;DHT22;3083;51.508;7.966;2023-07-13T03:21:17;15.00;99.90
6106;DHT22;3083;51.508;7.966;2023-07-13T03:23:44;14.90;99.90
6106;DHT22;3083;51.508;7.966;2023-07-13T03:26:12;14.90;99.90
6106;DHT22;3083;51.508;7.966;2023-07-13T03:28:39;14.90;99.90
6106;DHT22;3083;51.508;7.966;2023-07-13T03:31:10;15.00;99.90
6106;DHT22;3083;51.508;7.966;2023-07-13T03:33:37;14.90;99.90
6106;DHT22;3083;51.508;7.966;2023-07-13T03:36:05;14.90;99.90
6106;DHT22;3083;51.508;7.966;2023-07-13T03:38:35;14.90;99.90
6106;DHT22;3083;51.508;7.966;2023-07-13T03:41:02;14.90;99.90
6106;DHT22;3083;51.508;7.966;2023-07-13T03:43:29;14.90;99.90
6106;DHT22;3083;51.508;7.966;2023-07-13T03:45:56;14.90;99.90
6106;DHT22;3083;51.508;7.966;2023-07-13T03:48:22;14.90;99.90
6106;DHT22;3083;51.508;7.966;2023-07-13T03:50:49;14.90;99.90
6106;DHT22;3083;51.508;7.966;2023-07-13T03:53:16;14.90;99.90
6106;DHT22;3083;51.508;7.966;2023-07-13T03:55:45;14.90;99.90
6106;DHT22;3083;51.508;7.966;2023-07-13T03:58:28;14.90;99.90
6106;DHT22;3083;51.508;7.966;2023-07-13T04:00:55;14.90;99.90
6106;DHT22;3083;51.508;7.966;2023-07-13T04:03:23;14.90;99.90
6106;DHT22;3083;51.508;7.966;2023-07-13T04:05:50;14.90;99.90
6106;DHT22;3083;51.508;7.966;2023-07-13T04:08:17;14.90;99.90
6106;DHT22;3083;51.508;7.966;2023-07-13T04:10:45;14.80;99.90
6106;DHT22;3083;51.508;7.966;2023-07-13T04:13:12;14.80;99.90
6106;DHT22;3083;51.508;7.966;2023-07-13T04:15:40;14.90;99.90
6106;DHT22;3083;51.508;7.966;2023-07-13T04:18:07;14.90;99.90
6106;DHT22;3083;51.508;7.966;2023-07-13T04:20:34;14.90;99.90
6106;DHT22;3083;51.508;7.966;2023-07-13T04:23:01;14.90;99.90
6106;DHT22;3083;51.508;7.966;2023-07-13T04:25:28;14.90;99.90
6106;DHT22;3083;51.508;7.966;2023-07-13T04:27:56;14.90;99.90
6106;DHT22;3083;51.508;7.966;2023-07-13T04:30:24;14.90;99.90
6106;DHT22;3083;51.508;7.966;2023-07-13T04:32:51;15.00;99.90
6106;DHT22;3083;51.508;7.966;2023-07-13T04:35:18;15.00;99.90
6106;DHT22;3083;51.508;7.966;2023-07-13T04:37:47;15.00;99.90
6106;DHT22;3083;51.508;7.966;2023-07-13T04:40:15;15.00;99.90
6106;DHT22;3083;51.508;7.966;2023-07-13T04:42:43;15.00;99.90
6106;DHT22;3083;51.508;7.966;2023-07-13T04:45:12;15.00;99.90
6106;DHT22;3083;51.508;7.966;2023-07-13T04:47:39;15.00;99.90
6106;DHT22;3083;51.508;7.966;2023-07-13T04:50:07;15.00;99.90
6106;DHT22;3083;51.508;7.966;2023-07-13T04:52:34;15.10;99.90
6106;DHT22;3083;51.508;7.966;2023-07-13T04:55:01;15.10;99.90
6106;DHT22;3083;51.508;7.966;2023-07-13T04:57:28;15.10;99.90
6106;DHT22;3083;51.508;7.966;2023-07-13T04:59:55;15.20;99.90
6106;DHT22;3083;51.508;7.966;2023-07-13T05:02:23;15.20;99.90
6106;DHT22;3083;51.508;7.966;2023-07-13T05:04:50;15.20;99.90
6106;DHT22;3083;51.508;7.966;2023-07-13T05:07:17;15.30;99.90
6106;DHT22;3083;51.508;7.966;2023-07-13T05:09:44;15.30;99.90
6106;DHT22;3083;51.508;7.966;2023-07-13T05:12:10;15.40;99.90
6106;DHT22;3083;51.508;7.966;2023-07-13T05:14:37;15.40;99.90
6106;DHT22;3083;51.508;7.966;2023-07-13T05:17:04;15.50;99.90
6106;DHT22;3083;51.508;7.966;2023-07-13T05:19:33;15.50;99.90
6106;DHT22;3083;51.508;7.966;2023-07-13T05:22:00;15.60;99.90
6106;DHT22;3083;51.508;7.966;2023-07-13T05:24:28;15.60;99.90
6106;DHT22;3083;51.508;7.966;2023-07-13T05:26:55;15.70;99.90
6106;DHT22;3083;51.508;7.966;2023-07-13T05:29:22;15.80;99.90
6106;DHT22;3083;51.508;7.966;2023-07-13T05:31:50;15.80;99.90
6106;DHT22;3083;51.508;7.966;2023-07-13T05:34:17;15.90;99.90
6106;DHT22;3083;51.508;7.966;2023-07-13T05:36:45;15.90;99.90
6106;DHT22;3083;51.508;7.966;2023-07-13T05:39:12;16.00;99.90
6106;DHT22;3083;51.508;7.966;2023-07-13T05:41:39;16.10;99.90
6106;DHT22;3083;51.508;7.966;2023-07-13T05:44:06;16.20;99.90
6106;DHT22;3083;51.508;7.966;2023-07-13T05:46:33;16.30;99.90
6106;DHT22;3083;51.508;7.966;2023-07-13T05:49:00;16.40;99.90
6106;DHT22;3083;51.508;7.966;2023-07-13T05:51:27;16.60;99.90
6106;DHT22;3083;51.508;7.966;2023-07-13T05:53:55;16.70;99.90
6106;DHT22;3083;51.508;7.966;2023-07-13T05:56:22;16.90;99.90
6106;DHT22;3083;51.508;7.966;2023-07-13T05:58:50;17.10;99.90
6106;DHT22;3083;51.508;7.966;2023-07-13T06:01:17;17.30;99.90
6106;DHT22;3083;51.508;7.966;2023-07-13T06:03:46;17.60;99.90
6106;DHT22;3083;51.508;7.966;2023-07-13T06:06:13;17.90;99.90
6106;DHT22;3083;51.508;7.966;2023-07-13T06:08:40;18.20;99.90
6106;DHT22;3083;51.508;7.966;2023-07-13T06:11:12;18.40;99.90
6106;DHT22;3083;51.508;7.966;2023-07-13T06:13:40;18.70;99.90
6106;DHT22;3083;51.508;7.966;2023-07-13T06:16:06;19.00;99.90
6106;DHT22;3083;51.508;7.966;2023-07-13T06:18:35;19.20;99.90
6106;DHT22;3083;51.508;7.966;2023-07-13T06:21:06;19.50;99.90
6106;DHT22;3083;51.508;7.966;2023-07-13T06:23:32;19.80;99.90
6106;DHT22;3083;51.508;7.966;2023-07-13T06:25:59;19.80;99.90
6106;DHT22;3083;51.508;7.966;2023-07-13T06:28:28;19.90;99.90
6106;DHT22;3083;51.508;7.966;2023-07-13T06:30:55;20.10;99.90
6106;DHT22;3083;51.508;7.966;2023-07-13T06:33:22;20.30;99.90
6106;DHT22;3083;51.508;7.966;2023-07-13T06:35:49;20.30;99.90
6106;DHT22;3083;51.508;7.966;2023-07-13T06:38:16;20.50;99.90
6106;DHT22;3083;51.508;7.966;2023-07-13T06:40:43;20.70;99.90
6106;DHT22;3083;51.508;7.966;2023-07-13T06:43:10;20.80;99.90
6106;DHT22;3083;51.508;7.966;2023-07-13T06:45:43;21.00;99.90
6106;DHT22;3083;51.508;7.966;2023-07-13T06:48:11;21.30;99.90
6106;DHT22;3083;51.508;7.966;2023-07-13T06:50:38;21.50;99.90
6106;DHT22;3083;51.508;7.966;2023-07-13T06:53:05;21.50;99.90
6106;DHT22;3083;51.508;7.966;2023-07-13T06:55:32;21.60;99.90
6106;DHT22;3083;51.508;7.966;2023-07-13T06:57:58;21.50;99.90
6106;DHT22;3083;51.508;7.966;2023-07-13T07:00:25;21.70;99.90
6106;DHT22;3083;51.508;7.966;2023-07-13T07:02:54;21.80;99.90
6106;DHT22;3083;51.508;7.966;2023-07-13T07:05:21;21.90;99.90
6106;DHT22;3083;51.508;7.966;2023-07-13T07:07:48;21.90;99.90
6106;DHT22;3083;51.508;7.966;2023-07-13T07:10:15;21.80;99.90
6106;DHT22;3083;51.508;7.966;2023-07-13T07:12:41;21.80;99.90
6106;DHT22;3083;51.508;7.966;2023-07-13T07:15:09;21.90;99.90
6106;DHT22;3083;51.508;7.966;2023-07-13T07:17:36;21.90;99.90
6106;DHT22;3083;51.508;7.966;2023-07-13T07:20:05;21.90;99.90
6106;DHT22;3083;51.508;7.966;2023-07-13T07:22:32;22.10;99.90
6106;DHT22;3083;51.508;7.966;2023-07-13T07:24:59;22.10;99.90
6106;DHT22;3083;51.508;7.966;2023-07-13T07:27:26;22.20;99.90
6106;DHT22;3083;51.508;7.966;2023-07-13T07:29:53;22.20;99.90
6106;DHT22;3083;51.508;7.966;2023-07-13T07:32:20;22.40;99.90
6106;DHT22;3083;51.508;7.966;2023-07-13T07:34:47;22.50;99.90
6106;DHT22;3083;51.508;7.966;2023-07-13T07:37:16;22.70;99.90
6106;DHT22;3083;51.508;7.966;2023-07-13T07:39:43;22.70;99.90
6106;DHT22;3083;51.508;7.966;2023-07-13T07:42:10;22.80;99.90
6106;DHT22;3083;51.508;7.966;2023-07-13T07:44:38;22.90;99.90
6106;DHT22;3083;51.508;7.966;2023-07-13T07:47:05;22.90;99.90
6106;DHT22;3083;51.508;7.966;2023-07-13T07:49:32;22.90;99.90
6106;DHT22;3083;51.508;7.966;2023-07-13T07:51:59;22.90;99.90
6106;DHT22;3083;51.508;7.966;2023-07-13T07:54:27;23.10;99.90
6106;DHT22;3083;51.508;7.966;2023-07-13T07:56:54;23.10;99.90
6106;DHT22;3083;51.508;7.966;2023-07-13T07:59:21;23.10;99.90
6106;DHT22;3083;51.508;7.966;2023-07-13T08:01:48;23.20;99.90
6106;DHT22;3083;51.508;7.966;2023-07-13T08:04:16;23.40;99.90
6106;DHT22;3083;51.508;7.966;2023-07-13T08:06:42;23.40;99.90
6106;DHT22;3083;51.508;7.966;2023-07-13T08:09:09;23.60;99.90
6106;DHT22;3083;51.508;7.966;2023-07-13T08:11:38;23.60;99.90
6106;DHT22;3083;51.508;7.966;2023-07-13T08:14:04;23.80;99.90
6106;DHT22;3083;51.508;7.966;2023-07-13T08:16:31;23.80;99.90
6106;DHT22;3083;51.508;7.966;2023-07-13T08:18:59;23.80;99.90
6106;DHT22;3083;51.508;7.966;2023-07-13T08:21:26;23.70;99.90
6106;DHT22;3083;51.508;7.966;2023-07-13T08:23:53;23.60;99.90
6106;DHT22;3083;51.508;7.966;2023-07-13T08:26:20;23.60;99.90
6106;DHT22;3083;51.508;7.966;2023-07-13T08:28:48;23.50;99.90
6106;DHT22;3083;51.508;7.966;2023-07-13T08:31:15;23.40;99.90
6106;DHT22;3083;51.508;7.966;2023-07-13T08:33:42;23.50;99.90
6106;DHT22;3083;51.508;7.966;2023-07-13T08:36:09;23.50;99.90
6106;DHT22;3083;51.508;7.966;2023-07-13T08:38:36;23.60;99.90
6106;DHT22;3083;51.508;7.966;2023-07-13T08:41:11;23.70;99.90
6106;DHT22;3083;51.508;7.966;2023-07-13T08:43:38;23.80;99.90
6106;DHT22;3083;51.508;7.966;2023-07-13T08:46:09;24.00;99.90
6106;DHT22;3083;51.508;7.966;2023-07-13T08:48:41;24.00;99.90
6106;DHT22;3083;51.508;7.966;2023-07-13T08:51:18;24.10;99.90
6106;DHT22;3083;51.508;7.966;2023-07-13T08:53:50;24.20;99.90
6106;DHT22;3083;51.508;7.966;2023-07-13T08:56:21;24.50;99.90
6106;DHT22;3083;51.508;7.966;2023-07-13T08:58:51;24.70;99.90
6106;DHT22;3083;51.508;7.966;2023-07-13T09:01:24;24.70;99.90
6106;DHT22;3083;51.508;7.966;2023-07-13T09:03:59;24.50;99.90
6106;DHT22;3083;51.508;7.966;2023-07-13T09:06:45;24.40;99.90
6106;DHT22;3083;51.508;7.966;2023-07-13T09:09:21;24.20;99.90
6106;DHT22;3083;51.508;7.966;2023-07-13T09:11:58;24.00;99.90
6106;DHT22;3083;51.508;7.966;2023-07-13T09:14:38;23.80;99.90
6106;DHT22;3083;51.508;7.966;2023-07-13T09:17:14;23.60;99.90
6106;DHT22;3083;51.508;7.966;2023-07-13T09:19:43;23.50;99.90
6106;DHT22;3083;51.508;7.966;2023-07-13T09:22:16;23.60;99.90
6106;DHT22;3083;51.508;7.966;2023-07-13T09:24:52;23.90;99.90
6106;DHT22;3083;51.508;7.966;2023-07-13T09:27:22;24.10;99.90
6106;DHT22;3083;51.508;7.966;2023-07-13T09:29:58;24.20;99.90
6106;DHT22;3083;51.508;7.966;2023-07-13T09:32:30;24.30;99.90
6106;DHT22;3083;51.508;7.966;2023-07-13T09:34:58;24.30;99.90
6106;DHT22;3083;51.508;7.966;2023-07-13T09:37:29;24.50;99.90
6106;DHT22;3083;51.508;7.966;2023-07-13T09:39:59;24.60;99.90
6106;DHT22;3083;51.508;7.966;2023-07-13T09:42:28;24.90;99.90
6106;DHT22;3083;51.508;7.966;2023-07-13T09:44:56;25.00;99.90
6106;DHT22;3083;51.508;7.966;2023-07-13T09:47:25;24.80;99.90
6106;DHT22;3083;51.508;7.966;2023-07-13T09:49:58;24.60;99.90
6106;DHT22;3083;51.508;7.966;2023-07-13T09:52:26;24.70;99.90
6106;DHT22;3083;51.508;7.966;2023-07-13T09:54:54;24.90;99.90
6106;DHT22;3083;51.508;7.966;2023-07-13T09:57:26;25.00;99.90
6106;DHT22;3083;51.508;7.966;2023-07-13T09:59:54;25.10;99.90
6106;DHT22;3083;51.508;7.966;2023-07-13T10:02:26;25.20;99.90
6106;DHT22;3083;51.508;7.966;2023-07-13T10:05:00;25.10;99.90
6106;DHT22;3083;51.508;7.966;2023-07-13T10:07:29;25.20;99.90
6106;DHT22;3083;51.508;7.966;2023-07-13T10:09:57;25.30;99.90
6106;DHT22;3083;51.508;7.966;2023-07-13T10:12:27;25.40;99.90
6106;DHT22;3083;51.508;7.966;2023-07-13T10:14:56;25.40;99.90
6106;DHT22;3083;51.508;7.966;2023-07-13T10:17:27;25.40;99.90
6106;DHT22;3083;51.508;7.966;2023-07-13T10:19:59;25.50;99.90
6106;DHT22;3083;51.508;7.966;2023-07-13T10:22:37;25.40;99.90
6106;DHT22;3083;51.508;7.966;2023-07-13T10:25:15;25.50;99.90
6106;DHT22;3083;51.508;7.966;2023-07-13T10:27:44;25.60;99.90
6106;DHT22;3083;51.508;7.966;2023-07-13T10:30:15;25.50;99.90
6106;DHT22;3083;51.508;7.966;2023-07-13T10:32:43;25.50;99.90
6106;DHT22;3083;51.508;7.966;2023-07-13T10:35:14;25.40;99.90
6106;DHT22;3083;51.508;7.966;2023-07-13T10:37:47;25.20;99.90
6106;DHT22;3083;51.508;7.966;2023-07-13T10:40:19;25.20;99.90
6106;DHT22;3083;51.508;7.966;2023-07-13T10:42:51;25.40;99.90
6106;DHT22;3083;51.508;7.966;2023-07-13T10:45:21;25.60;99.90
6106;DHT22;3083;51.508;7.966;2023-07-13T10:47:49;25.90;99.90
6106;DHT22;3083;51.508;7.966;2023-07-13T10:50:22;25.90;99.90
6106;DHT22;3083;51.508;7.966;2023-07-13T10:52:51;25.60;99.90
6106;DHT22;3083;51.508;7.966;2023-07-13T10:55:37;25.20;99.90
6106;DHT22;3083;51.508;7.966;2023-07-13T10:58:13;24.90;99.90
6106;DHT22;3083;51.508;7.966;2023-07-13T11:00:47;25.10;99.90
6106;DHT22;3083;51.508;7.966;2023-07-13T11:03:17;25.40;99.90
6106;DHT22;3083;51.508;7.966;2023-07-13T11:05:48;25.60;99.90
6106;DHT22;3083;51.508;7.966;2023-07-13T11:08:20;25.70;99.90
6106;DHT22;3083;51.508;7.966;2023-07-13T11:10:53;25.70;99.90
6106;DHT22;3083;51.508;7.966;2023-07-13T11:13:56;25.50;99.90
6106;DHT22;3083;51.508;7.966;2023-07-13T11:16:48;25.30;99.90
6106;DHT22;3083;51.508;7.966;2023-07-13T11:19:27;24.90;99.90
6106;DHT22;3083;51.508;7.966;2023-07-13T11:22:13;24.60;99.90
6106;DHT22;3083;51.508;7.966;2023-07-13T11:24:56;24.40;99.90
6106;DHT22;3083;51.508;7.966;2023-07-13T11:27:39;24.20;99.90
6106;DHT22;3083;51.508;7.966;2023-07-13T11:33:04;23.70;99.90
6106;DHT22;3083;51.508;7.966;2023-07-13T11:35:36;23.40;99.90
6106;DHT22;3083;51.508;7.966;2023-07-13T11:38:13;23.40;99.90
6106;DHT22;3083;51.508;7.966;2023-07-13T11:40:43;23.50;99.90
6106;DHT22;3083;51.508;7.966;2023-07-13T11:43:13;23.70;99.90
6106;DHT22;3083;51.508;7.966;2023-07-13T11:45:41;24.00;99.90
6106;DHT22;3083;51.508;7.966;2023-07-13T11:48:19;24.40;99.90
6106;DHT22;3083;51.508;7.966;2023-07-13T11:50:55;24.50;99.90
6106;DHT22;3083;51.508;7.966;2023-07-13T11:53:27;24.30;99.90
6106;DHT22;3083;51.508;7.966;2023-07-13T11:55:54;24.20;99.90
6106;DHT22;3083;51.508;7.966;2023-07-13T11:58:24;24.00;99.90
6106;DHT22;3083;51.508;7.966;2023-07-13T12:00:53;24.00;99.90
6106;DHT22;3083;51.508;7.966;2023-07-13T12:03:23;23.90;99.90
6106;DHT22;3083;51.508;7.966;2023-07-13T12:05:59;23.80;99.90
6106;DHT22;3083;51.508;7.966;2023-07-13T12:08:28;23.60;99.90
6106;DHT22;3083;51.508;7.966;2023-07-13T12:11:05;23.40;99.90
6106;DHT22;3083;51.508;7.966;2023-07-13T12:13:36;23.20;99.90
6106;DHT22;3083;51.508;7.966;2023-07-13T12:16:12;23.20;99.90
6106;DHT22;3083;51.508;7.966;2023-07-13T12:18:39;23.10;99.90
6106;DHT22;3083;51.508;7.966;2023-07-13T12:21:12;23.20;99.90
6106;DHT22;3083;51.508;7.966;2023-07-13T12:23:43;23.10;99.90
6106;DHT22;3083;51.508;7.966;2023-07-13T12:26:12;23.20;99.90
6106;DHT22;3083;51.508;7.966;2023-07-13T12:28:45;23.30;99.90
6106;DHT22;3083;51.508;7.966;2023-07-13T12:31:25;23.60;99.90
6106;DHT22;3083;51.508;7.966;2023-07-13T12:33:57;23.90;99.90
6106;DHT22;3083;51.508;7.966;2023-07-13T12:36:25;24.00;99.90
6106;DHT22;3083;51.508;7.966;2023-07-13T12:38:54;24.10;99.90
6106;DHT22;3083;51.508;7.966;2023-07-13T12:41:20;24.20;99.90
6106;DHT22;3083;51.508;7.966;2023-07-13T12:43:48;24.40;99.90
6106;DHT22;3083;51.508;7.966;2023-07-13T12:46:18;24.70;99.90
6106;DHT22;3083;51.508;7.966;2023-07-13T12:48:49;24.90;99.90
6106;DHT22;3083;51.508;7.966;2023-07-13T12:51:16;25.00;99.90
6106;DHT22;3083;51.508;7.966;2023-07-13T12:53:47;25.10;99.90
6106;DHT22;3083;51.508;7.966;2023-07-13T12:56:20;25.20;99.90
6106;DHT22;3083;51.508;7.966;2023-07-13T12:58:49;25.40;99.90
6106;DHT22;3083;51.508;7.966;2023-07-13T13:01:21;25.40;99.90
6106;DHT22;3083;51.508;7.966;2023-07-13T13:03:48;25.40;99.90
6106;DHT22;3083;51.508;7.966;2023-07-13T13:06:22;25.50;99.90
6106;DHT22;3083;51.508;7.966;2023-07-13T13:08:51;25.60;99.90
6106;DHT22;3083;51.508;7.966;2023-07-13T13:11:21;25.70;99.90
6106;DHT22;3083;51.508;7.966;2023-07-13T13:13:49;25.60;99.90
6106;DHT22;3083;51.508;7.966;2023-07-13T13:16:20;25.50;99.90
6106;DHT22;3083;51.508;7.966;2023-07-13T13:18:48;25.60;99.90
6106;DHT22;3083;51.508;7.966;2023-07-13T13:21:16;25.60;99.90
6106;DHT22;3083;51.508;7.966;2023-07-13T13:23:43;25.50;99.90
6106;DHT22;3083;51.508;7.966;2023-07-13T13:26:12;25.50;99.90
6106;DHT22;3083;51.508;7.966;2023-07-13T13:28:42;25.50;99.90
6106;DHT22;3083;51.508;7.966;2023-07-13T13:31:10;25.50;99.90
6106;DHT22;3083;51.508;7.966;2023-07-13T13:33:38;25.60;99.90
6106;DHT22;3083;51.508;7.966;2023-07-13T13:36:13;25.60;99.90
6106;DHT22;3083;51.508;7.966;2023-07-13T13:38:41;25.70;99.90
6106;DHT22;3083;51.508;7.966;2023-07-13T13:41:10;25.80;99.90
6106;DHT22;3083;51.508;7.966;2023-07-13T13:43:39;25.80;99.90
6106;DHT22;3083;51.508;7.966;2023-07-13T13:46:15;25.90;99.90
6106;DHT22;3083;51.508;7.966;2023-07-13T13:48:43;26.00;99.90
6106;DHT22;3083;51.508;7.966;2023-07-13T13:51:16;26.10;99.90
6106;DHT22;3083;51.508;7.966;2023-07-13T13:53:44;26.20;99.90
6106;DHT22;3083;51.508;7.966;2023-07-13T13:56:11;26.20;99.90
6106;DHT22;3083;51.508;7.966;2023-07-13T13:58:38;26.20;99.90
6106;DHT22;3083;51.508;7.966;2023-07-13T14:01:10;25.90;99.90
6106;DHT22;3083;51.508;7.966;2023-07-13T14:03:40;25.80;99.90
6106;DHT22;3083;51.508;7.966;2023-07-13T14:06:08;25.70;99.90
6106;DHT22;3083;51.508;7.966;2023-07-13T14:08:37;25.70;99.90
6106;DHT22;3083;51.508;7.966;2023-07-13T14:11:05;25.80;99.90
6106;DHT22;3083;51.508;7.966;2023-07-13T14:13:37;25.80;99.90
6106;DHT22;3083;51.508;7.966;2023-07-13T14:16:12;25.70;99.90
6106;DHT22;3083;51.508;7.966;2023-07-13T14:18:43;25.60;99.90
6106;DHT22;3083;51.508;7.966;2023-07-13T14:21:14;25.30;99.90
6106;DHT22;3083;51.508;7.966;2023-07-13T14:23:43;24.60;99.90
6106;DHT22;3083;51.508;7.966;2023-07-13T14:26:12;23.90;99.90
6106;DHT22;3083;51.508;7.966;2023-07-13T14:28:42;23.20;99.90
6106;DHT22;3083;51.508;7.966;2023-07-13T14:31:09;22.50;99.90
6106;DHT22;3083;51.508;7.966;2023-07-13T14:33:37;21.90;99.90
6106;DHT22;3083;51.508;7.966;2023-07-13T14:36:26;21.30;99.90
6106;DHT22;3083;51.508;7.966;2023-07-13T14:38:54;20.80;99.90
6106;DHT22;3083;51.508;7.966;2023-07-13T14:41:21;20.20;99.90
6106;DHT22;3083;51.508;7.966;2023-07-13T14:43:48;19.80;99.90
6106;DHT22;3083;51.508;7.966;2023-07-13T14:46:26;19.50;99.90
6106;DHT22;3083;51.508;7.966;2023-07-13T14:49:01;19.20;99.90
6106;DHT22;3083;51.508;7.966;2023-07-13T14:51:29;18.90;99.90
6106;DHT22;3083;51.508;7.966;2023-07-13T14:53:57;18.60;99.90
6106;DHT22;3083;51.508;7.966;2023-07-13T14:56:25;18.40;99.90
6106;DHT22;3083;51.508;7.966;2023-07-13T14:58:52;18.20;99.90
6106;DHT22;3083;51.508;7.966;2023-07-13T15:01:20;18.10;99.90
6106;DHT22;3083;51.508;7.966;2023-07-13T15:03:49;18.10;99.90
6106;DHT22;3083;51.508;7.966;2023-07-13T15:06:19;18.20;99.90
6106;DHT22;3083;51.508;7.966;2023-07-13T15:08:46;18.40;99.90
6106;DHT22;3083;51.508;7.966;2023-07-13T15:11:14;18.60;99.90
6106;DHT22;3083;51.508;7.966;2023-07-13T15:13:41;18.90;99.90
6106;DHT22;3083;51.508;7.966;2023-07-13T15:16:15;19.10;99.90
6106;DHT22;3083;51.508;7.966;2023-07-13T15:18:44;19.40;99.90
6106;DHT22;3083;51.508;7.966;2023-07-13T15:21:16;19.60;99.90
6106;DHT22;3083;51.508;7.966;2023-07-13T15:23:45;19.90;99.90
6106;DHT22;3083;51.508;7.966;2023-07-13T15:26:13;20.10;99.90
6106;DHT22;3083;51.508;7.966;2023-07-13T15:28:41;20.20;99.90
6106;DHT22;3083;51.508;7.966;2023-07-13T15:31:22;20.30;99.90
6106;DHT22;3083;51.508;7.966;2023-07-13T15:33:50;20.50;99.90
6106;DHT22;3083;51.508;7.966;2023-07-13T15:36:18;20.50;99.90
6106;DHT22;3083;51.508;7.966;2023-07-13T15:38:47;20.40;99.90
6106;DHT22;3083;51.508;7.966;2023-07-13T15:41:20;20.30;99.90
6106;DHT22;3083;51.508;7.966;2023-07-13T15:43:49;20.10;99.90
6106;DHT22;3083;51.508;7.966;2023-07-13T15:46:17;20.00;99.90
6106;DHT22;3083;51.508;7.966;2023-07-13T15:48:45;19.90;99.90
6106;DHT22;3083;51.508;7.966;2023-07-13T15:51:22;19.90;99.90
6106;DHT22;3083;51.508;7.966;2023-07-13T15:53:53;19.80;99.90
6106;DHT22;3083;51.508;7.966;2023-07-13T15:56:23;19.70;99.90
6106;DHT22;3083;51.508;7.966;2023-07-13T15:58:51;19.60;99.90
6106;DHT22;3083;51.508;7.966;2023-07-13T16:01:18;19.50;99.90
6106;DHT22;3083;51.508;7.966;2023-07-13T16:03:46;19.50;99.90
6106;DHT22;3083;51.508;7.966;2023-07-13T16:06:15;19.60;99.90
6106;DHT22;3083;51.508;7.966;2023-07-13T16:08:43;19.70;99.90
6106;DHT22;3083;51.508;7.966;2023-07-13T16:11:19;19.90;99.90
6106;DHT22;3083;51.508;7.966;2023-07-13T16:13:47;20.20;99.90
6106;DHT22;3083;51.508;7.966;2023-07-13T16:16:21;20.30;99.90
6106;DHT22;3083;51.508;7.966;2023-07-13T16:18:51;20.40;99.90